Time;durP1;ratioP1;P1;durP2;ratioP2;P2;SDS_P1;SDS_P2;PMS_P1;PMS_P2;Temp;Humidity;BMP_temperature;BMP_pressure;BME280_temperature;BME280_humidity;BME280_pressure;Samples;Min_cycle;Max_cycle;Signal;HPM_P1;HPM_P2
2021/12/02 00:53:23;784666.00;2.62;1354.39;110852.00;0.37;192.30;;;;;10.10;1.00;;;;;;2271350;61;960;-87
2021/12/02 00:58:23;922789.00;3.08;1596.18;182450.00;0.61;315.71;;;;;10.40;1.00;;;;;;2271690;61;1303;-86
2021/12/02 01:23:10;113208.00;0.38;196.37;0.00;0.00;0.62;;;;;9.90;1.00;;;;;;2271435;61;1279;-86
2021/12/02 01:45:40;183256.00;0.61;317.10;0.00;0.00;0.62;;;;;8.40;1.00;;;;;;2499185;40;3441;31
2021/12/02 02:05:31;82078.00;0.27;142.63;0.00;0.00;0.62;;;;;8.70;1.00;;;;;;2497369;55;3648;31
2021/12/02 02:17:56;404792.00;1.35;698.04;97911.00;0.33;169.97;;;;;9.90;1.00;;;;;;2271222;61;899;-86
2021/12/02 02:27:51;131249.00;0.44;227.48;45746.00;0.15;79.83;;;;;9.80;1.00;;;;;;2271184;61;897;-87
2021/12/02 04:16:53;224792.00;0.75;388.59;49007.00;0.16;85.47;;;;;8.30;1.00;;;;;;2271100;61;1895;-85
2021/12/02 04:34:19;2030766.00;6.77;3687.69;186998.00;0.62;323.54;;;;;8.40;1.00;;;;;;2271407;61;1315;-87
2021/12/02 05:08:57;289249.00;0.96;499.44;13805.00;0.05;24.54;;;;;9.30;1.00;;;;;;2501922;40;3484;31
2021/12/02 06:08:36;394449.00;1.31;680.26;81193.00;0.27;141.10;;;;;10.10;1.00;;;;;;2506530;40;3699;31
2021/12/02 06:13:31;238633.00;0.80;412.40;82361.00;0.27;143.12;;;;;11.10;1.00;;;;;;2271321;61;889;-86
2021/12/02 06:15:57;13709.00;0.05;24.37;0.00;0.00;0.62;;;;;11.20;1.00;;;;;;2262531;61;1980;-86
2021/12/02 08:02:23;325709.00;1.09;562.11;111204.00;0.37;192.91;;;;;9.80;1.00;;;;;;2271499;61;1221;-78
2021/12/02 08:04:50;627000.00;2.09;1080.86;94602.00;0.32;164.25;;;;;9.40;1.00;;;;;;2269015;61;1539;-81
2021/12/02 08:07:16;533900.00;1.78;920.21;118837.00;0.40;206.08;;;;;8.90;1.00;;;;;;2269541;61;1068;-82
2021/12/02 08:09:43;517115.00;1.72;891.30;0.00;0.00;0.62;;;;;8.90;1.00;;;;;;2262679;61;1452;-81
2021/12/02 08:12:10;95255.00;0.32;165.38;0.00;0.00;0.62;;;;;8.50;1.00;;;;;;2265668;61;1072;-80
2021/12/02 08:14:38;147585.00;0.49;255.65;0.00;0.00;0.62;;;;;8.20;1.00;;;;;;2261023;61;1158;-82
2021/12/02 08:17:05;65588.00;0.22;114.14;0.00;0.00;0.62;;;;;8.20;1.00;;;;;;2253168;61;2025;-82
2021/12/02 08:19:33;208004.00;0.69;359.70;0.00;0.00;0.62;;;;;8.60;1.00;;;;;;2250052;61;1398;-81
2021/12/02 08:22:00;119186.00;0.40;206.68;9386.00;0.03;16.89;;;;;8.40;1.00;;;;;;2252785;61;1583;-80
2021/12/02 08:24:27;2260190.00;7.53;4172.99;247962.00;0.83;428.45;;;;;8.20;1.00;;;;;;2253361;61;1178;-80
2021/12/02 08:26:55;24608.00;0.08;43.25;0.00;0.00;0.62;;;;;8.40;1.00;;;;;;2249924;61;1123;-80
2021/12/02 08:29:23;23761.00;0.08;41.78;0.00;0.00;0.62;;;;;8.00;1.00;;;;;;2253414;61;1381;-82
2021/12/02 08:31:51;21302.00;0.07;37.52;0.00;0.00;0.62;;;;;7.80;1.00;;;;;;2254841;61;974;-79
2021/12/02 08:34:18;968116.00;3.23;1676.08;52854.00;0.18;92.12;;;;;7.80;1.00;;;;;;2265761;61;1079;-80
2021/12/02 08:36:49;760200.00;2.53;1311.80;92151.00;0.31;160.02;;;;;7.70;1.00;;;;;;2260943;61;2000;-80
2021/12/02 08:39:21;22814.00;0.08;40.14;0.00;0.00;0.62;;;;;7.40;1.00;;;;;;2254574;61;1347;-81
2021/12/02 08:41:49;34935.00;0.12;61.12;0.00;0.00;0.62;;;;;7.40;1.00;;;;;;2260983;61;1054;-80
2021/12/02 08:44:18;221667.00;0.74;383.21;6774.00;0.02;12.36;;;;;7.50;1.00;;;;;;2254616;61;996;-81
2021/12/02 08:46:47;1179855.00;3.93;2053.84;156532.00;0.52;271.06;;;;;7.80;1.00;;;;;;2254568;61;1041;-80
2021/12/02 08:49:15;982934.00;3.28;1702.27;148012.00;0.49;256.38;;;;;8.20;1.00;;;;;;2254510;61;1412;-82
2021/12/02 08:51:42;301906.00;1.01;521.20;97526.00;0.33;169.30;;;;;8.20;1.00;;;;;;2260434;61;1165;-82
2021/12/02 08:54:11;206294.00;0.69;356.76;97821.00;0.33;169.81;;;;;8.40;1.00;;;;;;2262622;61;1284;-79
2021/12/02 08:56:38;10006.00;0.03;17.96;0.00;0.00;0.62;;;;;8.40;1.00;;;;;;2265444;61;2003;-80
2021/12/02 08:59:06;39439.00;0.13;68.92;0.00;0.00;0.62;;;;;8.50;1.00;;;;;;2265487;61;1432;-80
2021/12/02 09:01:33;104360.00;0.35;181.10;0.00;0.00;0.62;;;;;8.80;1.00;;;;;;2269311;61;1076;-80
2021/12/02 09:04:02;2004725.00;6.68;3634.03;210904.00;0.70;364.69;;;;;9.20;1.00;;;;;;2269315;61;1253;-80
2021/12/02 09:06:30;1006492.00;3.35;1743.97;233891.00;0.78;404.24;;;;;9.10;1.00;;;;;;2269291;61;1104;-82
2021/12/02 09:08:58;95152.00;0.32;165.20;1188.00;0.00;2.68;;;;;8.80;1.00;;;;;;2262298;61;1436;-80
2021/12/02 09:11:29;25304.00;0.08;44.45;0.00;0.00;0.62;;;;;8.50;1.00;;;;;;2262294;61;1120;-80
2021/12/02 09:13:58;59277.00;0.20;103.23;0.00;0.00;0.62;;;;;8.40;1.00;;;;;;2269369;61;1024;-80
2021/12/02 09:16:25;1057937.00;3.53;1835.36;110443.00;0.37;191.59;;;;;8.90;1.00;;;;;;2269325;61;1978;-81
2021/12/02 09:18:54;1372213.00;4.57;2404.89;137378.00;0.46;238.05;;;;;8.90;1.00;;;;;;2265561;61;1403;-79
2021/12/02 09:21:21;304039.00;1.01;524.86;98272.00;0.33;170.59;;;;;8.80;1.00;;;;;;2260762;61;967;-78
2021/12/02 09:23:49;67507.00;0.23;117.45;0.00;0.00;0.62;;;;;8.80;1.00;;;;;;2260708;61;1582;-81
2021/12/02 09:26:16;46846.00;0.16;81.73;0.00;0.00;0.62;;;;;8.90;1.00;;;;;;2260782;61;1173;-82
2021/12/02 09:28:52;283914.00;0.95;490.27;17458.00;0.06;30.87;;;;;9.00;1.00;;;;;;2260689;61;1444;-81
2021/12/02 09:31:20;1644850.00;5.48;2918.76;339373.00;1.13;585.60;;;;;9.00;1.00;;;;;;2260810;61;1029;-80
2021/12/02 09:33:47;228008.00;0.76;394.12;96114.00;0.32;166.86;;;;;9.20;1.00;;;;;;2254158;61;1196;-81
2021/12/02 09:36:15;0.00;0.00;0.62;0.00;0.00;0.62;;;;;9.00;1.00;;;;;;2260182;61;1990;-82
2021/12/02 09:38:42;173806.00;0.58;300.82;38610.00;0.13;67.48;;;;;9.00;1.00;;;;;;2261411;61;1600;-82
2021/12/02 09:41:10;165075.00;0.55;285.78;0.00;0.00;0.62;;;;;9.00;1.00;;;;;;2262177;61;1104;-79
2021/12/02 09:43:37;1454487.00;4.85;2557.77;138542.00;0.46;240.06;;;;;9.70;1.00;;;;;;2269154;61;1131;-81
2021/12/02 09:46:05;925054.00;3.08;1600.17;139910.00;0.47;242.42;;;;;9.60;1.00;;;;;;2269260;61;1109;-82
2021/12/02 09:48:34;37579.00;0.13;65.70;0.00;0.00;0.62;;;;;9.80;1.00;;;;;;2263650;61;1260;-81
2021/12/02 09:51:06;198770.00;0.66;343.81;14227.00;0.05;25.27;;;;;9.70;1.00;;;;;;2264772;61;1099;-81
2021/12/02 09:53:37;586135.00;1.95;1010.29;28796.00;0.10;50.50;;;;;9.60;1.00;;;;;;2264696;61;1233;-80
2021/12/02 09:56:13;796552.00;2.66;1375.11;26354.00;0.09;46.27;;;;;10.10;1.00;;;;;;2260727;61;1927;-81
2021/12/02 09:58:41;295959.00;0.99;510.97;95600.00;0.32;165.98;;;;;10.60;1.00;;;;;;2260782;61;1349;-80
2021/12/02 10:01:11;185766.00;0.62;321.42;4379.00;0.01;8.21;;;;;10.50;1.00;;;;;;2260451;61;1275;-81
2021/12/02 10:03:39;12067.00;0.04;21.53;0.00;0.00;0.62;;;;;10.10;1.00;;;;;;2260781;61;1016;-79
2021/12/02 10:06:09;940846.00;3.14;1627.97;97532.00;0.33;169.31;;;;;9.90;1.00;;;;;;2261997;61;1184;-80
2021/12/02 10:08:46;1781226.00;5.94;3184.36;298560.00;1.00;515.44;;;;;10.00;1.00;;;;;;2264722;61;1408;-81
2021/12/02 10:11:14;937106.00;3.12;1621.39;156168.00;0.52;270.44;;;;;10.30;1.00;;;;;;2264686;61;1106;-80
2021/12/02 10:13:46;0.00;0.00;0.62;0.00;0.00;0.62;;;;;10.30;1.00;;;;;;2265007;61;1633;-81
2021/12/02 10:16:25;0.00;0.00;0.62;0.00;0.00;0.62;;;;;10.30;1.00;;;;;;2268900;61;1986;-83
2021/12/02 10:19:01;173716.00;0.58;300.67;0.00;0.00;0.62;;;;;10.80;1.00;;;;;;2265339;61;1467;-82
2021/12/02 10:21:31;302503.00;1.01;522.22;51640.00;0.17;90.02;;;;;10.90;1.00;;;;;;2269119;61;1762;-81
2021/12/02 10:24:07;435049.00;1.45;750.07;0.00;0.00;0.62;;;;;10.60;1.00;;;;;;2265409;61;1000;-82
2021/12/02 10:26:40;1037244.00;3.46;1798.55;80917.00;0.27;140.62;;;;;10.40;1.00;;;;;;2265381;61;1013;-81
2021/12/02 10:29:14;1075660.00;3.59;1866.95;61111.00;0.20;106.40;;;;;10.30;1.00;;;;;;2269083;61;1360;-82
2021/12/02 10:31:46;474907.00;1.58;818.63;95100.00;0.32;165.11;;;;;9.90;1.00;;;;;;2268992;61;1721;-81
2021/12/02 10:34:15;0.00;0.00;0.62;0.00;0.00;0.62;;;;;9.90;1.00;;;;;;2269092;61;1266;-82
2021/12/02 10:36:44;176419.00;0.59;305.32;35632.00;0.12;62.33;;;;;10.00;1.00;;;;;;2269034;61;1910;-83
2021/12/02 10:39:16;1611712.00;5.37;2855.14;260487.00;0.87;449.99;;;;;10.20;1.00;;;;;;2268161;61;1293;-83
2021/12/02 10:41:45;1246469.00;4.15;2174.47;239508.00;0.80;413.90;;;;;9.70;1.00;;;;;;2265344;61;1005;-83
2021/12/02 10:44:19;346190.00;1.15;597.31;101683.00;0.34;176.48;;;;;9.40;1.00;;;;;;2268881;61;900;-82
2021/12/02 10:47:03;188210.00;0.63;325.63;7816.00;0.03;14.17;;;;;8.40;1.00;;;;;;2260456;61;985;-82
2021/12/02 10:49:32;64100.00;0.21;111.56;0.00;0.00;0.62;;;;;8.10;1.00;;;;;;2260392;61;1374;-80
2021/12/02 10:52:03;136687.00;0.46;236.86;0.00;0.00;0.62;;;;;8.30;1.00;;;;;;2260506;61;1306;-79
2021/12/02 10:54:32;211372.00;0.70;365.50;34671.00;0.12;60.67;;;;;8.40;1.00;;;;;;2260174;61;974;-81
2021/12/02 10:57:02;548581.00;1.83;945.51;20865.00;0.07;36.77;;;;;8.40;1.00;;;;;;2260508;61;1992;-80
2021/12/02 10:59:39;1236619.00;4.12;2156.57;59449.00;0.20;103.52;;;;;8.50;1.00;;;;;;2259048;61;1321;-80
2021/12/02 11:02:16;345502.00;1.15;596.13;12657.00;0.04;22.55;;;;;8.80;1.00;;;;;;2252565;61;950;-82
2021/12/02 11:04:45;47309.00;0.16;82.53;0.00;0.00;0.62;;;;;9.30;1.00;;;;;;2251381;61;1537;-82
2021/12/02 11:07:19;79777.00;0.27;138.65;0.00;0.00;0.62;;;;;9.60;1.00;;;;;;2263782;61;1703;-83
2021/12/02 11:09:48;316379.00;1.05;546.07;2149.00;0.01;4.34;;;;;9.60;1.00;;;;;;2264440;61;1337;-82
2021/12/02 11:12:18;1629967.00;5.43;2890.15;216001.00;0.72;373.46;;;;;9.60;1.00;;;;;;2257923;61;1036;-81
2021/12/02 11:15:09;574216.00;1.91;989.72;115735.00;0.39;200.72;;;;;9.90;1.00;;;;;;2264531;61;1443;-81
2021/12/02 11:17:41;92801.00;0.31;161.14;5524.00;0.02;10.19;;;;;10.10;1.00;;;;;;2257813;61;1916;-82
2021/12/02 11:20:11;169277.00;0.56;293.02;33144.00;0.11;58.02;;;;;10.20;1.00;;;;;;2266344;61;1313;-80
2021/12/02 11:22:39;860814.00;2.87;1487.40;52650.00;0.18;91.77;;;;;10.40;1.00;;;;;;2268854;61;1403;-83
2021/12/02 11:25:10;1045059.00;3.48;1812.44;8016.00;0.03;14.51;;;;;10.30;1.00;;;;;;2264783;61;956;-82
2021/12/02 11:27:40;15372.00;0.05;27.25;0.00;0.00;0.62;;;;;10.00;1.00;;;;;;2268926;61;1064;-83
2021/12/02 11:30:11;30246.00;0.10;53.01;0.00;0.00;0.62;;;;;10.00;1.00;;;;;;2265239;61;1378;-83
2021/12/02 11:32:43;79200.00;0.26;137.66;9064.00;0.03;16.33;;;;;9.90;1.00;;;;;;2262573;61;1040;-81
2021/12/02 11:35:18;1335436.00;4.45;2337.11;169675.00;0.57;293.71;;;;;9.70;1.00;;;;;;2269601;61;1016;-82
2021/12/02 11:37:51;1106078.00;3.69;1921.30;99409.00;0.33;172.55;;;;;9.40;1.00;;;;;;2269566;61;2005;-81
2021/12/02 11:40:20;8955.00;0.03;16.14;0.00;0.00;0.62;;;;;9.60;1.00;;;;;;2269608;61;1412;-82
2021/12/02 11:42:50;11923.00;0.04;21.28;0.00;0.00;0.62;;;;;10.10;1.00;;;;;;2269646;61;1189;-83
2021/12/02 11:45:19;9783.00;0.03;17.57;0.00;0.00;0.62;;;;;10.00;1.00;;;;;;2265078;61;997;-80
2021/12/02 11:47:49;52082.00;0.17;90.79;0.00;0.00;0.62;;;;;9.70;1.00;;;;;;2264961;61;1007;-80
2021/12/02 11:50:19;26311.00;0.09;46.20;0.00;0.00;0.62;;;;;9.20;1.00;;;;;;2264917;61;1412;-80
2021/12/02 11:52:47;73684.00;0.25;128.13;0.00;0.00;0.62;;;;;9.10;1.00;;;;;;2265042;61;1150;-82
2021/12/02 11:55:18;60259.00;0.20;104.92;0.00;0.00;0.62;;;;;9.10;1.00;;;;;;2252717;61;972;-78
2021/12/02 11:57:45;215080.00;0.72;371.88;48523.00;0.16;84.63;;;;;8.90;1.00;;;;;;2253310;61;1912;-82
2021/12/02 12:00:15;14976.00;0.05;26.57;0.00;0.00;0.62;;;;;9.30;1.00;;;;;;2253369;61;1491;-82
2021/12/02 12:02:53;0.00;0.00;0.62;0.00;0.00;0.62;;;;;9.70;1.00;;;;;;2245258;61;1137;-82
2021/12/02 12:05:29;17564.00;0.06;31.05;0.00;0.00;0.62;;;;;9.80;1.00;;;;;;2257829;61;1131;-82
2021/12/02 12:07:56;0.00;0.00;0.62;0.00;0.00;0.62;;;;;9.50;1.00;;;;;;2251090;61;1102;-80
2021/12/02 12:10:26;63566.00;0.21;110.64;0.00;0.00;0.62;;;;;9.50;1.00;;;;;;2257682;61;1503;-81
2021/12/02 12:13:10;78030.00;0.26;135.63;0.00;0.00;0.62;;;;;9.20;1.00;;;;;;2260434;61;946;-81
2021/12/02 12:15:40;57803.00;0.19;100.68;0.00;0.00;0.62;;;;;9.10;1.00;;;;;;2265631;61;1005;-82
2021/12/02 12:18:12;37530.00;0.13;65.61;0.00;0.00;0.62;;;;;8.80;1.00;;;;;;2269323;61;1995;-80
2021/12/02 12:20:53;152343.00;0.51;263.85;0.00;0.00;0.62;;;;;8.80;1.00;;;;;;2265604;61;1318;-82
2021/12/02 12:24:00;109102.00;0.36;189.28;0.00;0.00;0.62;;;;;8.70;1.00;;;;;;2265614;61;1033;-82
2021/12/02 12:26:36;86028.00;0.29;149.45;0.00;0.00;0.62;;;;;8.70;1.00;;;;;;2269103;61;1770;-81
2021/12/02 12:29:31;34177.00;0.11;59.81;0.00;0.00;0.62;;;;;9.00;1.00;;;;;;2262282;61;1424;-82
2021/12/02 12:32:44;324323.00;1.08;559.73;24740.00;0.08;43.48;;;;;9.30;1.00;;;;;;2265695;61;987;-81
2021/12/02 12:35:22;485174.00;1.62;836.30;40243.00;0.13;70.31;;;;;9.40;1.00;;;;;;2265691;61;934;-83
2021/12/02 12:38:05;500068.00;1.67;861.94;22998.00;0.08;40.46;;;;;9.10;1.00;;;;;;2265627;61;2000;-81
2021/12/02 12:40:45;1003446.00;3.34;1738.58;29092.00;0.10;51.01;;;;;8.30;1.00;;;;;;2269284;61;1450;-82
2021/12/02 12:43:37;662138.00;2.21;1141.64;21274.00;0.07;37.48;;;;;8.00;1.00;;;;;;2264719;61;946;-80
2021/12/02 12:46:23;284459.00;0.95;491.20;13454.00;0.04;23.93;;;;;8.50;1.00;;;;;;2258451;61;1164;-82
2021/12/02 12:48:53;14714.00;0.05;26.12;0.00;0.00;0.62;;;;;9.00;1.00;;;;;;2245060;61;1287;-79
2021/12/02 12:51:26;26291.00;0.09;46.16;0.00;0.00;0.62;;;;;9.40;1.00;;;;;;2233312;62;928;-79
2021/12/02 12:53:55;39000.00;0.13;68.16;0.00;0.00;0.62;;;;;9.40;1.00;;;;;;2233323;62;1348;-79
2021/12/02 12:56:28;322439.00;1.07;556.49;0.00;0.00;0.62;;;;;9.20;1.00;;;;;;2233299;62;2002;-81
2021/12/02 12:59:07;783017.00;2.61;1351.52;48852.00;0.16;85.20;;;;;9.10;1.00;;;;;;2237213;61;1461;-80
2021/12/02 13:01:36;954175.00;3.18;1651.47;87487.00;0.29;151.97;;;;;8.70;1.00;;;;;;2238942;61;998;-81
2021/12/02 13:04:20;1058564.00;3.53;1836.48;134824.00;0.45;233.65;;;;;9.00;1.00;;;;;;2238604;61;1069;-80
2021/12/02 13:06:56;992361.00;3.31;1718.95;95110.00;0.32;165.13;;;;;8.90;1.00;;;;;;2244875;61;1016;-82
2021/12/02 13:09:38;1500271.00;5.00;2643.63;194099.00;0.65;335.77;;;;;9.40;1.00;;;;;;2243639;61;1355;-82
2021/12/02 13:12:05;1219003.00;4.06;2124.62;231902.00;0.77;400.82;;;;;9.80;1.00;;;;;;2249036;61;1124;-81
2021/12/02 13:14:33;3344442.00;11.15;6849.44;147511.00;0.49;255.52;;;;;10.00;1.00;;;;;;2245438;61;1053;-82
2021/12/02 13:17:02;1866404.00;6.22;3353.52;167664.00;0.56;290.24;;;;;10.10;1.00;;;;;;2246819;61;1928;-80
2021/12/02 13:19:30;441995.00;1.47;762.01;111610.00;0.37;193.61;;;;;9.90;1.00;;;;;;2248818;61;1314;-82
2021/12/02 13:22:01;213006.00;0.71;368.31;94638.00;0.32;164.32;;;;;9.90;1.00;;;;;;2248864;61;955;-83
2021/12/02 13:24:35;48720.00;0.16;84.97;0.00;0.00;0.62;;;;;9.70;1.00;;;;;;2239012;61;1124;-79
2021/12/02 13:27:05;22240.00;0.07;39.15;0.00;0.00;0.62;;;;;9.60;1.00;;;;;;2264092;61;1211;-80
2021/12/02 13:29:35;6181.00;0.02;11.33;0.00;0.00;0.62;;;;;9.80;1.00;;;;;;2252734;61;1452;-86
2021/12/02 13:32:06;50340.00;0.17;87.77;0.00;0.00;0.62;;;;;10.10;1.00;;;;;;2246184;61;1243;-81
2021/12/02 13:34:34;30707.00;0.10;53.81;0.00;0.00;0.62;;;;;10.20;1.00;;;;;;2254875;61;1072;-85
2021/12/02 13:37:06;28554.00;0.10;50.08;0.00;0.00;0.62;;;;;10.20;1.00;;;;;;2260671;61;1997;-82
2021/12/02 13:39:34;125680.00;0.42;217.88;0.00;0.00;0.62;;;;;10.20;1.00;;;;;;2256639;61;1440;-82
2021/12/02 13:42:06;30610.00;0.10;53.64;0.00;0.00;0.62;;;;;10.60;1.00;;;;;;2252450;61;1096;-81
2021/12/02 13:44:37;0.00;0.00;0.62;0.00;0.00;0.62;;;;;10.70;1.00;;;;;;2252633;61;1074;-84
2021/12/02 13:47:12;0.00;0.00;0.62;0.00;0.00;0.62;;;;;10.90;1.00;;;;;;2252467;61;1573;-81
2021/12/02 13:49:44;105663.00;0.35;183.35;0.00;0.00;0.62;;;;;11.00;1.00;;;;;;2252738;61;1557;-83
2021/12/02 13:52:21;0.00;0.00;0.62;0.00;0.00;0.62;;;;;11.10;1.00;;;;;;2252808;61;1388;-82
2021/12/02 13:54:54;0.00;0.00;0.62;0.00;0.00;0.62;;;;;11.00;1.00;;;;;;2245993;61;1105;-82
2021/12/02 13:57:28;175524.00;0.59;303.78;0.00;0.00;0.62;;;;;11.00;1.00;;;;;;2248687;61;1924;-82
2021/12/02 13:59:55;909440.00;3.03;1572.71;36713.00;0.12;64.20;;;;;11.00;1.00;;;;;;2250526;61;1319;-79
2021/12/02 14:02:25;1186814.00;3.96;2066.40;98846.00;0.33;171.58;;;;;11.10;1.00;;;;;;2252472;61;1439;-82
2021/12/02 14:04:53;1025847.00;3.42;1778.30;129288.00;0.43;224.10;;;;;11.00;1.00;;;;;;2255859;61;1032;-82
2021/12/02 14:07:24;1080964.00;3.60;1876.41;179184.00;0.60;310.08;;;;;10.80;1.00;;;;;;2254217;61;926;-83
2021/12/02 14:09:54;1256650.00;4.19;2192.99;52263.00;0.17;91.10;;;;;10.70;1.00;;;;;;2260649;61;1428;-83
2021/12/02 14:12:24;1300893.00;4.34;2273.74;241454.00;0.80;417.25;;;;;10.50;1.00;;;;;;2260762;61;1267;-83
2021/12/02 14:14:56;333998.00;1.11;576.36;97833.00;0.33;169.83;;;;;10.70;1.00;;;;;;2262697;61;1154;-82
2021/12/02 14:17:23;437795.00;1.46;754.79;88383.00;0.29;153.52;;;;;10.80;1.00;;;;;;2268922;61;2001;-82
2021/12/02 14:20:02;459272.00;1.53;791.73;128624.00;0.43;222.96;;;;;10.80;1.00;;;;;;2260562;61;1346;-84
2021/12/02 14:22:32;308304.00;1.03;532.19;99395.00;0.33;172.53;;;;;10.90;1.00;;;;;;2260610;61;1000;-80
2021/12/02 14:24:59;382639.00;1.28;659.96;100430.00;0.33;174.31;;;;;10.90;1.00;;;;;;2260275;61;1520;-82
2021/12/02 14:27:26;88546.00;0.30;153.80;0.00;0.00;0.62;;;;;10.70;1.00;;;;;;2252805;61;1013;-82
2021/12/02 14:30:08;25951.00;0.09;45.57;0.00;0.00;0.62;;;;;10.50;1.00;;;;;;2252817;61;1303;-83
2021/12/02 14:32:34;34072.00;0.11;59.63;0.00;0.00;0.62;;;;;10.10;1.00;;;;;;2246363;61;997;-80
2021/12/02 14:35:11;30027.00;0.10;52.63;0.00;0.00;0.62;;;;;9.80;1.00;;;;;;2252443;61;1740;-81
2021/12/02 14:37:43;237615.00;0.79;410.65;95428.00;0.32;165.68;;;;;9.80;1.00;;;;;;2255671;61;1916;-81
2021/12/02 14:40:12;21516.00;0.07;37.90;0.00;0.00;0.62;;;;;9.90;1.00;;;;;;2252730;61;1353;-82
2021/12/02 14:42:39;40444.00;0.13;70.66;0.00;0.00;0.62;;;;;9.90;1.00;;;;;;2245830;61;1365;-82
2021/12/02 14:45:23;47715.00;0.16;83.23;0.00;0.00;0.62;;;;;9.50;1.00;;;;;;2255365;61;1105;-82
2021/12/02 14:47:51;51946.00;0.17;90.55;0.00;0.00;0.62;;;;;8.50;1.00;;;;;;2254035;61;915;-85
2021/12/02 14:50:18;53471.00;0.18;93.19;0.00;0.00;0.62;;;;;8.40;1.00;;;;;;2256406;61;1416;-83
2021/12/02 14:52:51;193350.00;0.64;334.48;0.00;0.00;0.62;;;;;8.50;1.00;;;;;;2249910;61;1081;-80
2021/12/02 14:55:23;18691.00;0.06;33.00;0.00;0.00;0.62;;;;;8.40;1.00;;;;;;2246803;61;973;-81
2021/12/02 14:57:50;59047.00;0.20;102.83;0.00;0.00;0.62;;;;;8.40;1.00;;;;;;2248104;61;1914;-83
2021/12/02 15:00:21;153139.00;0.51;265.22;0.00;0.00;0.62;;;;;8.30;1.00;;;;;;2256426;61;1400;-82
2021/12/02 15:02:49;40407.00;0.13;70.59;0.00;0.00;0.62;;;;;8.50;1.00;;;;;;2253106;61;1165;-81
2021/12/02 15:05:18;154033.00;0.51;266.76;0.00;0.00;0.62;;;;;8.50;1.00;;;;;;2249845;61;1714;-81
2021/12/02 15:07:51;117727.00;0.39;204.16;0.00;0.00;0.62;;;;;8.70;1.00;;;;;;2257316;61;1366;-83
2021/12/02 15:10:22;87167.00;0.29;151.42;0.00;0.00;0.62;;;;;8.70;1.00;;;;;;2252398;61;1416;-82
2021/12/02 15:12:50;90498.00;0.30;157.17;0.00;0.00;0.62;;;;;8.70;1.00;;;;;;2252529;61;1007;-81
2021/12/02 15:15:20;156109.00;0.52;270.33;0.00;0.00;0.62;;;;;8.60;1.00;;;;;;2254353;61;1257;-83
2021/12/02 15:17:53;135028.00;0.45;234.00;0.00;0.00;0.62;;;;;8.40;1.00;;;;;;2260283;61;1907;-81
2021/12/02 15:20:23;170998.00;0.57;295.99;40098.00;0.13;70.06;;;;;8.00;1.00;;;;;;2260508;61;1381;-83
2021/12/02 15:22:58;164765.00;0.55;285.25;0.00;0.00;0.62;;;;;7.60;1.00;;;;;;2260436;61;1136;-83
2021/12/02 15:25:29;5865.00;0.02;10.78;0.00;0.00;0.62;;;;;6.80;1.00;;;;;;2260569;61;1025;-81
2021/12/02 15:28:11;71714.00;0.24;124.72;0.00;0.00;0.62;;;;;6.60;1.00;;;;;;2263127;61;1034;-79
2021/12/02 15:30:42;101045.00;0.34;175.38;0.00;0.00;0.62;;;;;6.90;1.00;;;;;;2268924;61;1459;-80
2021/12/02 15:33:10;26468.00;0.09;46.47;0.00;0.00;0.62;;;;;7.20;1.00;;;;;;2265187;61;994;-81
2021/12/02 15:35:37;179145.00;0.60;310.02;0.00;0.00;0.62;;;;;7.40;1.00;;;;;;2268885;61;988;-81
2021/12/02 15:38:07;128070.00;0.43;222.00;0.00;0.00;0.62;;;;;7.90;1.00;;;;;;2268864;61;1998;-80
2021/12/02 15:40:36;77499.00;0.26;134.72;0.00;0.00;0.62;;;;;8.40;1.00;;;;;;2261828;61;1429;-82
2021/12/02 15:43:07;31159.00;0.10;54.59;0.00;0.00;0.62;;;;;8.70;1.00;;;;;;2260297;61;972;-82
2021/12/02 15:45:35;5421.00;0.02;10.02;0.00;0.00;0.62;;;;;8.70;1.00;;;;;;2260380;61;1097;-79
2021/12/02 15:53:47;369296.00;1.23;637.03;34266.00;0.11;59.97;;;;;9.10;1.00;;;;;;2266206;61;1392;-83
2021/12/02 15:56:14;1426781.00;4.76;2506.09;157671.00;0.53;273.03;;;;;9.20;1.00;;;;;;2264803;61;1182;-83
2021/12/02 15:58:41;420508.00;1.40;725.06;88989.00;0.30;154.56;;;;;9.20;1.00;;;;;;2257971;61;1994;-81
2021/12/02 16:01:10;158865.00;0.53;275.08;32677.00;0.11;57.22;;;;;9.10;1.00;;;;;;2265001;61;1228;-83
2021/12/02 16:03:39;282956.00;0.94;488.62;21206.00;0.07;37.36;;;;;9.10;1.00;;;;;;2264771;61;1202;-81
2021/12/02 16:06:22;964116.00;3.21;1669.02;119004.00;0.40;206.36;;;;;9.10;1.00;;;;;;2264954;61;1025;-80
2021/12/02 16:09:08;968039.00;3.23;1675.95;56249.00;0.19;97.99;;;;;9.20;1.00;;;;;;2264292;61;1676;-84
2021/12/02 16:11:40;383253.00;1.28;661.02;118974.00;0.40;206.31;;;;;9.30;1.00;;;;;;2264735;61;1379;-81
2021/12/02 16:14:08;75873.00;0.25;131.91;0.00;0.00;0.62;;;;;9.20;1.00;;;;;;2264859;61;1184;-82
2021/12/02 16:16:39;32505.00;0.11;56.92;0.00;0.00;0.62;;;;;9.30;1.00;;;;;;2264574;61;1056;-81
2021/12/02 16:19:06;766277.00;2.55;1322.37;86620.00;0.29;150.47;;;;;9.20;1.00;;;;;;2264956;61;2002;-83
2021/12/02 16:21:33;974964.00;3.25;1688.18;149101.00;0.50;258.26;;;;;9.30;1.00;;;;;;2264549;61;1060;-82
2021/12/02 16:24:01;773418.00;2.58;1334.80;133919.00;0.45;232.09;;;;;9.30;1.00;;;;;;2255201;61;1124;-84
2021/12/02 16:26:29;153224.00;0.51;265.36;9558.00;0.03;17.18;;;;;9.30;1.00;;;;;;2264936;61;886;-82
2021/12/02 16:28:56;11423.00;0.04;20.41;0.00;0.00;0.62;;;;;9.40;1.00;;;;;;2265098;61;1485;-81
2021/12/02 16:31:23;1325597.00;4.42;2319.03;142193.00;0.47;246.35;;;;;9.40;1.00;;;;;;2265122;61;1076;-81
2021/12/02 16:33:51;672.00;0.00;1.78;0.00;0.00;0.62;;;;;9.40;1.00;;;;;;2265047;61;1118;-83
2021/12/02 16:36:18;19710.00;0.07;34.77;0.00;0.00;0.62;;;;;9.40;1.00;;;;;;2258489;61;1040;-81
2021/12/02 16:39:15;26389.00;0.09;46.33;0.00;0.00;0.62;;;;;9.20;1.00;;;;;;2265150;61;1918;-81
2021/12/02 16:41:43;171470.00;0.57;296.80;17965.00;0.06;31.75;;;;;8.40;1.00;;;;;;2261606;61;1510;-84
2021/12/02 16:44:11;69615.00;0.23;121.10;0.00;0.00;0.62;;;;;6.90;1.00;;;;;;2265257;61;1607;-80
2021/12/02 16:46:39;47103.00;0.16;82.18;0.00;0.00;0.62;;;;;6.00;1.00;;;;;;2265391;61;1021;-81
2021/12/02 16:49:06;125410.00;0.42;217.41;0.00;0.00;0.62;;;;;5.70;1.00;;;;;;2265176;61;1323;-82
2021/12/02 16:51:32;84029.00;0.28;146.00;0.00;0.00;0.62;;;;;5.50;1.00;;;;;;2265234;61;1266;-82
2021/12/02 16:54:01;178203.00;0.59;308.39;0.00;0.00;0.62;;;;;5.50;1.00;;;;;;2265210;61;1133;-80
2021/12/02 16:56:29;146417.00;0.49;253.63;0.00;0.00;0.62;;;;;5.50;1.00;;;;;;2264919;61;947;-82
2021/12/02 16:58:58;99871.00;0.33;173.35;0.00;0.00;0.62;;;;;5.70;1.00;;;;;;2265203;61;1911;-81
2021/12/02 17:01:27;1503116.00;5.01;2648.98;85862.00;0.29;149.16;;;;;6.30;1.00;;;;;;2265368;61;989;-81
2021/12/02 17:06:36;1024310.00;3.41;1775.58;89312.00;0.30;155.12;;;;;6.80;1.00;;;;;;2260925;61;967;-81
2021/12/02 17:09:04;723618.00;2.41;1248.22;70487.00;0.23;122.60;;;;;7.10;1.00;;;;;;2260900;61;1396;-78
2021/12/02 17:11:31;323272.00;1.08;557.92;101535.00;0.34;176.22;;;;;7.00;1.00;;;;;;2260843;61;1751;-83
2021/12/02 17:13:59;29260.00;0.10;51.30;0.00;0.00;0.62;;;;;6.90;1.00;;;;;;2260887;61;1744;-81
2021/12/02 17:16:26;101268.00;0.34;175.76;0.00;0.00;0.62;;;;;6.80;1.00;;;;;;2252989;61;1128;-83
2021/12/02 17:18:54;126847.00;0.42;219.89;0.00;0.00;0.62;;;;;6.50;1.00;;;;;;2252400;61;1998;-81
2021/12/02 17:21:22;999929.00;3.33;1732.35;161591.00;0.54;279.78;;;;;6.00;1.00;;;;;;2252902;61;1325;-80
2021/12/02 17:23:49;235380.00;0.78;406.80;97529.00;0.33;169.31;;;;;6.30;1.00;;;;;;2253083;61;1038;-81
2021/12/02 17:26:17;83696.00;0.28;145.42;0.00;0.00;0.62;;;;;6.90;1.00;;;;;;2253134;61;958;-82
2021/12/02 17:28:49;104006.00;0.35;180.49;0.00;0.00;0.62;;;;;6.90;1.00;;;;;;2249669;61;1366;-82
2021/12/02 17:31:19;223997.00;0.75;387.22;0.00;0.00;0.62;;;;;6.70;1.00;;;;;;2248802;61;959;-85
2021/12/02 17:33:47;169004.00;0.56;292.55;12718.00;0.04;22.66;;;;;6.20;1.00;;;;;;2242412;61;989;-84
2021/12/02 17:36:14;139870.00;0.47;242.35;0.00;0.00;0.62;;;;;6.10;1.00;;;;;;2248805;61;1074;-83
2021/12/02 17:38:42;783124.00;2.61;1351.71;75492.00;0.25;131.25;;;;;6.40;1.00;;;;;;2248658;61;2009;-81
2021/12/02 17:41:09;1167951.00;3.89;2032.38;124900.00;0.42;216.53;;;;;6.50;1.00;;;;;;2240897;61;933;-82
2021/12/02 17:46:05;487583.00;1.63;840.45;0.00;0.00;0.62;;;;;8.30;1.00;;;;;;2495013;55;3590;31